Time;durP1;ratioP1;P1;durP2;ratioP2;P2;SDS_P1;SDS_P2;PMS_P1;PMS_P2;Temp;Humidity;BMP_temperature;BMP_pressure;BME280_temperature;BME280_humidity;BME280_pressure;Samples;Min_cycle;Max_cycle;Signal;HPM_P1;HPM_P2
2023/05/22 00:02:15;;;;;;;;;;;;;;;10.73;75.51;101081.81;5014212;28;19917;-90
2023/05/22 00:04:41;;;;;;;;;;;;;;;10.82;75.98;101076.22;5014201;28;19917;-90
2023/05/22 00:07:06;;;;;;;;;;;;;;;10.85;75.04;101082.06;5030733;28;19917;-90
2023/05/22 00:09:31;;;;;;;;;;;;;;;10.82;74.44;101079.63;5032085;28;19917;-90
2023/05/22 00:11:57;;;;;;;;;;;;;;;10.94;72.56;101075.63;5030823;28;20363;-91
2023/05/22 00:14:22;;;;;;;;;;;;;;;10.81;73.97;101079.72;5030960;28;19925;-89
2023/05/22 00:16:47;;;;;;;;;;;;;;;10.70;73.56;101088.81;5012812;28;19940;-90
2023/05/22 00:19:15;;;;;;;;;;;;;;;10.77;73.49;101079.00;5031853;28;19986;-89
2023/05/22 00:21:41;;;;;;;;;;;;;;;10.80;71.39;101086.63;5014281;28;19917;-90
2023/05/22 00:24:07;;;;;;;;;;;;;;;10.89;69.13;101088.75;5031988;28;20359;-89
2023/05/22 00:26:32;;;;;;;;;;;;;;;10.99;68.99;101089.13;5014099;28;19924;-90
2023/05/22 00:28:57;;;;;;;;;;;;;;;11.02;67.54;101089.00;5013300;28;19928;-89
2023/05/22 00:31:22;;;;;;;;;;;;;;;11.03;69.03;101093.25;5013673;28;19917;-90
2023/05/22 00:33:48;;;;;;;;;;;;;;;10.84;70.30;101084.72;5031716;28;19924;-90
2023/05/22 00:36:14;;;;;;;;;;;;;;;10.91;69.97;101080.94;5014101;28;19952;-90
2023/05/22 00:38:39;;;;;;;;;;;;;;;10.85;69.98;101087.25;5034921;28;20010;-90
2023/05/22 00:41:05;;;;;;;;;;;;;;;10.85;69.53;101087.25;5017542;28;19917;-90
2023/05/22 00:43:31;;;;;;;;;;;;;;;10.81;69.83;101087.47;5034334;28;19944;-90
2023/05/22 00:45:56;;;;;;;;;;;;;;;10.79;70.80;101076.38;5035259;28;19921;-91
2023/05/22 00:48:22;;;;;;;;;;;;;;;10.64;70.12;101078.75;5017496;28;19917;-90
2023/05/22 00:50:52;;;;;;;;;;;;;;;10.54;72.49;101074.13;5035120;28;19917;-90
2023/05/22 00:53:19;;;;;;;;;;;;;;;10.38;72.78;101081.72;5017166;28;20402;-90
2023/05/22 00:55:44;;;;;;;;;;;;;;;10.40;72.69;101079.91;5017392;28;19965;-91
2023/05/22 00:58:12;;;;;;;;;;;;;;;10.35;72.05;101079.28;5016410;28;20344;-90
2023/05/22 01:00:40;;;;;;;;;;;;;;;10.37;72.90;101074.91;5034858;28;19921;-91
2023/05/22 01:03:06;;;;;;;;;;;;;;;10.39;72.86;101076.50;5034741;28;20382;-90
2023/05/22 01:05:33;;;;;;;;;;;;;;;10.37;72.98;101070.56;5034941;28;19917;-90
2023/05/22 01:07:58;;;;;;;;;;;;;;;10.35;72.67;101072.38;5035146;28;19917;-91
2023/05/22 01:10:24;;;;;;;;;;;;;;;10.33;72.62;101075.94;5034876;28;19963;-91
2023/05/22 01:13:08;;;;;;;;;;;;;;;10.22;72.46;101072.09;5015739;28;19917;-91
2023/05/22 01:15:46;;;;;;;;;;;;;;;10.14;73.44;101074.16;5034598;28;20008;-90
2023/05/22 01:18:18;;;;;;;;;;;;;;;10.15;73.79;101065.53;5033600;28;20207;-90
2023/05/22 01:21:03;;;;;;;;;;;;;;;10.15;73.56;101068.13;5033558;28;20007;-90
2023/05/22 01:23:37;;;;;;;;;;;;;;;10.09;73.91;101068.38;5033349;28;19967;-90
2023/05/22 01:26:02;;;;;;;;;;;;;;;10.01;72.87;101057.59;5015692;28;20401;-90
2023/05/22 01:28:39;;;;;;;;;;;;;;;10.04;73.64;101054.84;5032416;28;19921;-90
2023/05/22 01:31:07;;;;;;;;;;;;;;;10.05;73.23;101059.13;5015685;28;19975;-91
2023/05/22 01:33:38;;;;;;;;;;;;;;;10.08;74.75;101056.41;5015576;28;19921;-91
2023/05/22 01:36:06;;;;;;;;;;;;;;;10.02;74.30;101054.94;5015622;28;19991;-91
2023/05/22 01:38:33;;;;;;;;;;;;;;;10.10;73.54;101046.84;5033408;28;19964;-91
2023/05/22 01:40:58;;;;;;;;;;;;;;;10.05;74.07;101046.22;5033265;28;19947;-91
2023/05/22 01:43:23;;;;;;;;;;;;;;;10.05;75.14;101043.66;5014512;28;19921;-91
2023/05/22 01:45:49;;;;;;;;;;;;;;;9.99;75.89;101046.50;5033164;28;20371;-90
2023/05/22 01:48:15;;;;;;;;;;;;;;;10.07;76.38;101046.97;5032629;28;20287;-91
2023/05/22 01:50:40;;;;;;;;;;;;;;;10.17;76.72;101047.38;5015344;28;19980;-91
2023/05/22 01:53:44;;;;;;;;;;;;;;;10.15;77.68;101049.22;5032924;28;20382;-90
2023/05/22 01:56:13;;;;;;;;;;;;;;;10.06;78.71;101045.31;4953755;28;20005;-90
2023/05/22 01:58:43;;;;;;;;;;;;;;;10.08;78.99;101053.81;4971657;28;19918;-91
2023/05/22 02:01:10;;;;;;;;;;;;;;;10.06;79.28;101050.47;5002837;28;20252;-90
2023/05/22 02:03:38;;;;;;;;;;;;;;;10.07;77.13;101057.28;5032962;28;19917;-91
2023/05/22 02:06:05;;;;;;;;;;;;;;;10.06;78.46;101056.47;5032809;28;19979;-91
2023/05/22 02:08:30;;;;;;;;;;;;;;;9.98;77.58;101057.72;5032955;28;20311;-91
2023/05/22 02:10:56;;;;;;;;;;;;;;;10.04;77.46;101060.00;5014024;28;20160;-90
2023/05/22 02:13:22;;;;;;;;;;;;;;;10.20;75.26;101060.16;5015140;28;19932;-91
2023/05/22 02:15:48;;;;;;;;;;;;;;;10.12;75.03;101060.53;4951494;28;1827517;-90
2023/05/22 02:18:13;;;;;;;;;;;;;;;10.22;74.56;101066.94;5032468;28;20305;-90
2023/05/22 02:20:38;;;;;;;;;;;;;;;10.18;74.50;101055.06;5033510;28;20356;-91
2023/05/22 02:23:04;;;;;;;;;;;;;;;10.16;73.65;101066.38;5033630;28;20389;-90
2023/05/22 02:25:29;;;;;;;;;;;;;;;10.12;75.49;101070.84;5015649;28;19917;-91
2023/05/22 02:27:54;;;;;;;;;;;;;;;10.05;75.25;101061.72;5032277;28;19952;-91
2023/05/22 02:30:19;;;;;;;;;;;;;;;10.06;74.04;101060.78;5033377;28;19917;-91
2023/05/22 02:32:44;;;;;;;;;;;;;;;10.11;73.31;101053.66;5033259;28;20013;-91
2023/05/22 02:35:10;;;;;;;;;;;;;;;10.05;74.33;101061.72;5033219;28;20342;-90
2023/05/22 02:37:35;;;;;;;;;;;;;;;9.97;75.12;101056.03;5033222;28;19959;-90
2023/05/22 02:40:00;;;;;;;;;;;;;;;9.91;75.21;101061.50;5033030;28;20346;-90
2023/05/22 02:42:26;;;;;;;;;;;;;;;9.91;74.85;101058.91;5032146;28;19921;-90
2023/05/22 02:44:51;;;;;;;;;;;;;;;9.90;74.41;101062.38;5032870;28;20003;-91
2023/05/22 02:47:16;;;;;;;;;;;;;;;9.81;74.25;101051.56;5015227;28;19917;-91
2023/05/22 02:49:41;;;;;;;;;;;;;;;9.76;74.60;101063.00;5015192;28;20430;-90
2023/05/22 02:52:07;;;;;;;;;;;;;;;9.82;73.79;101063.53;5015347;28;19940;-91
2023/05/22 02:54:32;;;;;;;;;;;;;;;9.79;74.46;101053.38;5015242;28;20004;-90
2023/05/22 02:56:57;;;;;;;;;;;;;;;9.74;74.55;101054.50;5031796;28;19932;-91
2023/05/22 02:59:23;;;;;;;;;;;;;;;9.74;74.67;101049.34;5014230;28;20383;-90
2023/05/22 03:01:48;;;;;;;;;;;;;;;9.72;75.66;101054.56;5015108;28;19917;-90
2023/05/22 03:04:13;;;;;;;;;;;;;;;9.64;75.05;101054.06;5032864;28;19921;-90
2023/05/22 03:06:39;;;;;;;;;;;;;;;9.63;75.12;101054.94;5031629;28;19974;-91
2023/05/22 03:09:04;;;;;;;;;;;;;;;9.64;74.84;101057.47;5032805;28;20473;-91
2023/05/22 03:11:33;;;;;;;;;;;;;;;9.61;73.98;101059.34;5031937;28;20389;-90
2023/05/22 03:13:58;;;;;;;;;;;;;;;9.51;75.17;101047.75;5030396;28;19921;-90
2023/05/22 03:16:23;;;;;;;;;;;;;;;9.53;75.24;101057.09;5013691;28;20389;-91
2023/05/22 03:18:49;;;;;;;;;;;;;;;9.45;76.03;101055.75;5032477;28;19971;-90
2023/05/22 03:21:14;;;;;;;;;;;;;;;9.45;75.63;101054.00;5032607;28;19925;-90
2023/05/22 03:23:39;;;;;;;;;;;;;;;9.53;74.43;101051.09;5032499;28;19921;-90
2023/05/22 03:26:05;;;;;;;;;;;;;;;9.52;73.89;101060.56;5032652;28;19923;-89
2023/05/22 03:28:30;;;;;;;;;;;;;;;9.48;73.99;101053.88;5032169;28;19917;-91
2023/05/22 03:30:55;;;;;;;;;;;;;;;9.52;73.99;101059.75;5031512;28;19921;-90
2023/05/22 03:33:20;;;;;;;;;;;;;;;9.52;73.95;101054.59;5014546;28;19956;-90
2023/05/22 03:35:46;;;;;;;;;;;;;;;9.49;75.03;101055.56;5014545;28;19921;-90
2023/05/22 03:38:11;;;;;;;;;;;;;;;9.48;74.86;101063.34;5014486;28;20394;-91
2023/05/22 03:40:36;;;;;;;;;;;;;;;9.48;74.63;101056.44;5032280;28;20325;-90
2023/05/22 03:43:01;;;;;;;;;;;;;;;9.47;73.74;101056.53;5032019;28;19924;-91
2023/05/22 03:45:27;;;;;;;;;;;;;;;9.43;75.57;101055.81;5004517;28;20417;-90
2023/05/22 03:47:52;;;;;;;;;;;;;;;9.47;74.69;101062.53;5012532;28;19987;-90
2023/05/22 03:50:17;;;;;;;;;;;;;;;9.41;75.11;101055.91;5012314;28;20017;-90
2023/05/22 03:52:42;;;;;;;;;;;;;;;9.39;76.14;101060.28;5012104;28;20347;-91
2023/05/22 03:55:08;;;;;;;;;;;;;;;9.43;74.76;101056.66;4994990;28;19949;-90
2023/05/22 03:57:33;;;;;;;;;;;;;;;9.45;74.67;101046.28;4994770;28;20276;-90
2023/05/22 04:00:05;;;;;;;;;;;;;;;9.46;75.61;101047.13;5002654;28;19917;-91
2023/05/22 04:02:30;;;;;;;;;;;;;;;9.49;75.13;101054.75;5014510;28;19920;-90
2023/05/22 04:04:55;;;;;;;;;;;;;;;9.48;76.16;101047.88;5032347;28;19967;-91
2023/05/22 04:07:21;;;;;;;;;;;;;;;9.54;75.74;101042.47;5032101;28;19996;-90
2023/05/22 04:09:46;;;;;;;;;;;;;;;9.52;75.99;101044.28;5032010;28;19917;-90
2023/05/22 04:12:11;;;;;;;;;;;;;;;9.55;76.81;101044.16;5034791;28;19917;-90
2023/05/22 04:14:36;;;;;;;;;;;;;;;9.57;76.24;101047.50;5034811;28;19928;-90
2023/05/22 04:17:02;;;;;;;;;;;;;;;9.66;76.54;101052.25;5035786;28;20342;-90
2023/05/22 04:19:28;;;;;;;;;;;;;;;9.63;77.27;101053.22;5035836;28;20338;-90
2023/05/22 04:21:54;;;;;;;;;;;;;;;9.64;76.92;101054.91;5035789;28;19975;-89
2023/05/22 04:24:21;;;;;;;;;;;;;;;9.68;76.54;101045.31;5017871;28;19913;-91
2023/05/22 04:26:47;;;;;;;;;;;;;;;9.73;76.80;101043.34;5035622;28;19924;-90
2023/05/22 04:29:13;;;;;;;;;;;;;;;9.75;76.45;101053.59;5035131;28;19913;-90
2023/05/22 04:31:38;;;;;;;;;;;;;;;9.83;76.78;101049.78;5017874;28;19917;-91
2023/05/22 04:34:04;;;;;;;;;;;;;;;9.82;75.77;101045.50;5034636;28;20375;-90
2023/05/22 04:36:29;;;;;;;;;;;;;;;9.96;75.18;101046.66;5017712;28;20007;-89
2023/05/22 04:38:55;;;;;;;;;;;;;;;9.92;75.79;101038.19;5035639;28;20306;-90
2023/05/22 04:41:26;;;;;;;;;;;;;;;9.91;76.08;101040.84;5035434;28;19917;-90
2023/05/22 04:43:52;;;;;;;;;;;;;;;9.90;76.27;101037.44;5035642;28;19918;-90
2023/05/22 04:46:18;;;;;;;;;;;;;;;9.96;76.11;101049.22;5035448;28;19917;-90
2023/05/22 04:48:43;;;;;;;;;;;;;;;9.99;75.41;101052.47;5034467;28;19952;-91
2023/05/22 04:51:08;;;;;;;;;;;;;;;9.94;75.59;101062.16;5035376;28;19921;-90
2023/05/22 04:53:34;;;;;;;;;;;;;;;9.94;76.14;101057.00;5035618;28;19921;-90
2023/05/22 04:56:00;;;;;;;;;;;;;;;9.89;76.41;101060.72;5035822;28;19979;-91
2023/05/22 04:58:28;;;;;;;;;;;;;;;9.84;76.91;101060.91;5035390;28;19917;-89
2023/05/22 05:00:53;;;;;;;;;;;;;;;9.84;76.52;101064.31;5035195;28;19953;-91
2023/05/22 05:03:19;;;;;;;;;;;;;;;9.83;76.96;101069.56;5033002;28;19982;-90
2023/05/22 05:05:46;;;;;;;;;;;;;;;9.82;76.71;101073.84;5035101;28;20291;-90
2023/05/22 05:08:11;;;;;;;;;;;;;;;9.79;76.79;101070.59;5017296;28;19952;-90
2023/05/22 05:10:36;;;;;;;;;;;;;;;9.79;78.19;101074.00;5035012;28;20414;-91
2023/05/22 05:13:02;;;;;;;;;;;;;;;9.76;77.79;101068.16;5034802;28;19925;-90
2023/05/22 05:15:28;;;;;;;;;;;;;;;9.80;77.79;101074.84;5034996;28;19917;-91
2023/05/22 05:17:53;;;;;;;;;;;;;;;9.83;77.22;101070.41;5034196;28;19917;-91
2023/05/22 05:20:19;;;;;;;;;;;;;;;9.85;78.21;101068.59;4997143;28;20276;-91
2023/05/22 05:22:45;;;;;;;;;;;;;;;9.92;78.47;101068.31;5003082;28;19929;-90
2023/05/22 05:25:10;;;;;;;;;;;;;;;10.02;77.18;101074.72;5033886;28;19917;-94
2023/05/22 05:27:35;;;;;;;;;;;;;;;10.10;76.46;101066.66;5010366;28;19922;-90
2023/05/22 05:30:01;;;;;;;;;;;;;;;10.18;76.17;101062.81;5014511;28;19921;-91
2023/05/22 05:32:26;;;;;;;;;;;;;;;10.36;74.83;101073.22;5014568;28;20363;-90
2023/05/22 05:34:51;;;;;;;;;;;;;;;10.41;75.53;101071.25;5014575;28;19921;-91
2023/05/22 05:37:17;;;;;;;;;;;;;;;10.40;74.64;101077.34;5003276;28;19975;-90
2023/05/22 05:39:42;;;;;;;;;;;;;;;10.43;75.26;101077.19;5034209;28;20328;-91
2023/05/22 05:42:07;;;;;;;;;;;;;;;10.33;76.03;101076.78;5022336;28;20353;-91
2023/05/22 05:44:32;;;;;;;;;;;;;;;10.33;75.53;101081.09;5017202;28;19917;-91
2023/05/22 05:46:58;;;;;;;;;;;;;;;10.48;75.92;101077.81;5027616;28;19923;-93
2023/05/22 05:49:23;;;;;;;;;;;;;;;10.54;75.39;101077.53;5007449;28;20284;-90
2023/05/22 05:51:48;;;;;;;;;;;;;;;10.60;74.33;101081.56;5000770;28;19917;-91
2023/05/22 05:54:14;;;;;;;;;;;;;;;10.71;73.78;101084.47;5014668;28;19932;-91
2023/05/22 05:56:39;;;;;;;;;;;;;;;10.81;74.71;101084.88;5015435;28;20010;-90
2023/05/22 05:59:04;;;;;;;;;;;;;;;10.92;73.95;101085.19;5033915;28;19925;-90
2023/05/22 06:01:32;;;;;;;;;;;;;;;11.07;72.36;101089.63;5034176;28;20007;-90
2023/05/22 06:04:01;;;;;;;;;;;;;;;11.26;71.23;101083.53;5034021;28;19952;-91
2023/05/22 06:06:28;;;;;;;;;;;;;;;11.45;70.97;101092.03;5032816;28;19917;-91
2023/05/22 06:08:54;;;;;;;;;;;;;;;11.43;70.04;101088.69;5012515;28;19921;-90
2023/05/22 06:11:19;;;;;;;;;;;;;;;11.48;69.56;101091.84;5016311;28;19967;-90
2023/05/22 06:13:44;;;;;;;;;;;;;;;11.48;68.66;101099.63;5034380;28;20395;-90
2023/05/22 06:16:09;;;;;;;;;;;;;;;11.57;68.29;101106.91;5033466;28;19928;-90
2023/05/22 06:18:35;;;;;;;;;;;;;;;11.37;68.47;101099.34;5016073;28;19923;-91
2023/05/22 06:21:01;;;;;;;;;;;;;;;11.48;68.53;101102.19;5016118;28;19995;-90
2023/05/22 06:23:26;;;;;;;;;;;;;;;11.91;66.80;101088.84;5014863;28;20379;-91
2023/05/22 06:25:51;;;;;;;;;;;;;;;11.65;66.28;101087.59;5015773;28;19924;-90
2023/05/22 06:28:16;;;;;;;;;;;;;;;11.55;66.82;101097.56;5033763;28;19967;-91
2023/05/22 06:30:42;;;;;;;;;;;;;;;11.46;68.09;101098.88;5033458;28;19921;-90
2023/05/22 06:33:07;;;;;;;;;;;;;;;11.59;67.31;101101.66;5033425;28;20367;-90
2023/05/22 06:35:32;;;;;;;;;;;;;;;11.62;67.74;101103.25;5033450;28;20360;-91
2023/05/22 06:37:58;;;;;;;;;;;;;;;11.55;68.35;101108.72;5032137;28;20299;-90
2023/05/22 06:40:23;;;;;;;;;;;;;;;11.53;68.83;101112.31;5033460;28;19921;-90
2023/05/22 06:42:48;;;;;;;;;;;;;;;11.64;69.31;101114.38;5015774;28;20323;-90
2023/05/22 06:45:16;;;;;;;;;;;;;;;11.91;69.57;101117.31;5033256;28;19947;-90
2023/05/22 06:47:41;;;;;;;;;;;;;;;12.89;65.58;101118.94;5033077;28;19928;-90
2023/05/22 06:50:07;;;;;;;;;;;;;;;12.37;66.18;101123.47;5015286;28;19917;-91
2023/05/22 06:52:32;;;;;;;;;;;;;;;12.51;65.71;101122.72;5031361;28;19968;-90
2023/05/22 06:55:03;;;;;;;;;;;;;;;12.59;66.56;101125.72;5033212;28;19923;-91
2023/05/22 06:57:29;;;;;;;;;;;;;;;12.69;65.40;101123.47;5033102;28;20008;-91
2023/05/22 06:59:54;;;;;;;;;;;;;;;12.75;65.41;101133.50;5015231;28;20369;-90
2023/05/22 07:02:19;;;;;;;;;;;;;;;12.66;66.59;101128.81;5033149;28;19924;-90
2023/05/22 07:04:45;;;;;;;;;;;;;;;12.67;66.77;101130.47;5033313;28;20385;-90
2023/05/22 07:07:10;;;;;;;;;;;;;;;12.71;67.10;101136.34;5013621;28;19921;-91
2023/05/22 07:09:35;;;;;;;;;;;;;;;12.59;66.88;101136.09;5030894;28;19921;-93
2023/05/22 07:12:01;;;;;;;;;;;;;;;12.40;67.89;101144.00;5014853;28;20364;-90
2023/05/22 07:14:26;;;;;;;;;;;;;;;12.59;67.67;101143.03;5032527;28;19917;-90
2023/05/22 07:16:51;;;;;;;;;;;;;;;12.56;66.46;101143.19;5032505;28;20448;-91
2023/05/22 07:19:18;;;;;;;;;;;;;;;12.48;66.70;101145.34;5032036;28;19924;-91
2023/05/22 07:21:43;;;;;;;;;;;;;;;12.69;66.33;101144.19;5029037;28;20410;-89
2023/05/22 07:24:08;;;;;;;;;;;;;;;12.90;66.92;101142.16;5028691;28;19971;-90
2023/05/22 07:26:34;;;;;;;;;;;;;;;13.01;65.16;101144.16;5031728;28;19996;-91
2023/05/22 07:28:59;;;;;;;;;;;;;;;13.04;64.19;101151.75;5032149;28;19971;-90
2023/05/22 07:31:25;;;;;;;;;;;;;;;13.13;62.97;101148.63;5017124;28;20284;-91
2023/05/22 07:33:50;;;;;;;;;;;;;;;13.13;62.63;101153.81;5032207;28;19975;-90
2023/05/22 07:36:16;;;;;;;;;;;;;;;13.40;62.15;101150.59;5023654;28;19921;-91
2023/05/22 07:38:42;;;;;;;;;;;;;;;13.37;61.13;101158.56;5032561;28;19928;-89
2023/05/22 07:41:07;;;;;;;;;;;;;;;13.49;61.24;101160.44;5031330;28;19917;-90
2023/05/22 07:43:32;;;;;;;;;;;;;;;13.43;60.97;101164.22;5031882;28;19917;-89
2023/05/22 07:45:57;;;;;;;;;;;;;;;13.57;61.54;101165.19;5025746;28;19929;-89
2023/05/22 07:48:22;;;;;;;;;;;;;;;13.61;60.63;101164.09;5027610;28;19982;-92
2023/05/22 07:50:48;;;;;;;;;;;;;;;13.68;60.21;101166.22;5025569;28;19921;-91
2023/05/22 07:53:13;;;;;;;;;;;;;;;13.81;60.85;101165.50;5005254;28;19961;-90
2023/05/22 07:55:38;;;;;;;;;;;;;;;13.59;60.11;101169.34;4994429;28;19921;-91
2023/05/22 07:58:04;;;;;;;;;;;;;;;13.69;59.39;101169.66;4996264;28;19928;-91
2023/05/22 08:00:30;;;;;;;;;;;;;;;13.69;60.27;101167.88;5016448;28;20029;-92
2023/05/22 08:02:55;;;;;;;;;;;;;;;13.60;59.86;101165.00;5025134;28;19921;-92
2023/05/22 08:05:20;;;;;;;;;;;;;;;13.86;60.16;101174.69;5010365;28;19925;-92
2023/05/22 08:07:46;;;;;;;;;;;;;;;13.99;59.68;101171.34;5014168;28;19929;-93
2023/05/22 08:10:15;;;;;;;;;;;;;;;14.00;59.85;101176.47;5000656;28;19964;-92
2023/05/22 08:12:40;;;;;;;;;;;;;;;14.26;58.70;101167.06;4999023;28;19925;-95
2023/05/22 08:15:06;;;;;;;;;;;;;;;14.31;61.84;101170.25;5010117;28;20012;-95
2023/05/22 08:17:31;;;;;;;;;;;;;;;14.19;59.69;101170.13;5010671;28;20367;-92
2023/05/22 08:19:57;;;;;;;;;;;;;;;14.43;59.35;101176.41;5009239;28;20051;-91
2023/05/22 08:22:22;;;;;;;;;;;;;;;14.60;58.59;101175.41;5027583;28;19932;-90
2023/05/22 08:24:47;;;;;;;;;;;;;;;14.84;57.79;101178.22;5029136;28;19921;-91
2023/05/22 08:27:13;;;;;;;;;;;;;;;14.90;57.85;101182.19;5012233;28;20021;-90
2023/05/22 08:29:38;;;;;;;;;;;;;;;15.14;58.56;101175.44;5028486;28;19975;-90
2023/05/22 08:32:03;;;;;;;;;;;;;;;15.12;58.08;101172.09;5029218;28;20379;-91
2023/05/22 08:34:28;;;;;;;;;;;;;;;15.10;57.11;101183.53;5029273;28;20427;-92
2023/05/22 08:36:54;;;;;;;;;;;;;;;15.17;57.88;101182.22;5029121;28;19921;-90
2023/05/22 08:39:19;;;;;;;;;;;;;;;15.33;57.89;101182.84;5029219;28;19921;-91
2023/05/22 08:41:46;;;;;;;;;;;;;;;15.43;56.70;101184.84;5029369;28;19925;-91
2023/05/22 08:44:12;;;;;;;;;;;;;;;15.47;57.53;101183.72;5029090;28;20012;-91
2023/05/22 08:46:40;;;;;;;;;;;;;;;16.03;56.35;101176.50;5028840;28;20028;-92
2023/05/22 08:49:07;;;;;;;;;;;;;;;16.59;53.70;101176.09;5029016;28;19925;-92
2023/05/22 08:51:35;;;;;;;;;;;;;;;17.03;51.84;101169.50;5029220;28;19925;-92
2023/05/22 08:54:03;;;;;;;;;;;;;;;17.52;51.52;101173.69;5028372;28;19991;-91
2023/05/22 08:56:30;;;;;;;;;;;;;;;18.20;50.11;101158.94;5029262;28;19928;-91
2023/05/22 08:58:56;;;;;;;;;;;;;;;18.87;47.85;101160.59;5014121;28;19928;-91
2023/05/22 09:01:22;;;;;;;;;;;;;;;19.60;46.18;101153.69;5032854;28;19929;-91
2023/05/22 09:03:49;;;;;;;;;;;;;;;19.90;46.62;101167.81;5044942;28;20432;-89
2023/05/22 09:06:15;;;;;;;;;;;;;;;19.91;44.72;101161.59;5015640;28;19921;-92
2023/05/22 09:08:41;;;;;;;;;;;;;;;20.03;45.78;101154.50;5033531;28;19921;-91
2023/05/22 09:11:07;;;;;;;;;;;;;;;20.43;45.19;101161.50;5032882;28;19956;-92
2023/05/22 09:13:32;;;;;;;;;;;;;;;21.45;44.05;101158.56;5033582;28;20399;-92
2023/05/22 09:16:17;;;;;;;;;;;;;;;21.42;43.41;101170.16;5030768;28;19925;-89
2023/05/22 09:18:42;;;;;;;;;;;;;;;21.77;42.25;101166.88;5029163;28;19960;-90
2023/05/22 09:21:09;;;;;;;;;;;;;;;22.15;41.65;101170.34;5032780;28;19944;-90
2023/05/22 09:23:34;;;;;;;;;;;;;;;21.53;42.64;101161.28;5032162;28;20364;-91
2023/05/22 09:26:00;;;;;;;;;;;;;;;21.35;40.86;101169.03;5032432;28;19964;-90
2023/05/22 09:28:26;;;;;;;;;;;;;;;21.53;41.49;101172.66;5015078;28;19948;-91
2023/05/22 09:30:53;;;;;;;;;;;;;;;22.16;40.90;101179.88;5032559;28;19959;-91
2023/05/22 09:33:18;;;;;;;;;;;;;;;21.07;41.86;101168.94;5032124;28;20040;-91
2023/05/22 09:35:47;;;;;;;;;;;;;;;21.19;42.16;101169.63;5014944;28;20373;-91
2023/05/22 09:38:12;;;;;;;;;;;;;;;20.97;44.63;101183.00;5021218;28;19921;-91
2023/05/22 09:40:39;;;;;;;;;;;;;;;21.47;41.50;101175.00;5026019;28;19928;-91
2023/05/22 09:43:08;;;;;;;;;;;;;;;20.39;43.68;101170.63;5003033;28;20016;-90
2023/05/22 09:45:34;;;;;;;;;;;;;;;20.38;43.35;101168.94;5028576;28;20419;-91
2023/05/22 09:48:00;;;;;;;;;;;;;;;20.86;43.15;101173.47;5007320;28;19921;-91
2023/05/22 09:50:25;;;;;;;;;;;;;;;21.07;43.78;101181.19;5010753;28;20344;-91
2023/05/22 09:52:50;;;;;;;;;;;;;;;21.00;43.33;101169.63;5029558;28;20318;-91
2023/05/22 09:55:17;;;;;;;;;;;;;;;20.07;44.69;101172.44;5031302;28;19917;-91
2023/05/22 09:57:43;;;;;;;;;;;;;;;20.24;44.65;101176.22;5016999;28;19968;-90
2023/05/22 10:00:14;;;;;;;;;;;;;;;20.62;44.20;101176.47;5034283;28;19917;-90
2023/05/22 10:02:52;;;;;;;;;;;;;;;21.68;41.33;101175.66;5034102;28;20435;-91
2023/05/22 10:05:20;;;;;;;;;;;;;;;22.02;41.29;101168.06;5013125;28;19939;-89
2023/05/22 10:07:48;;;;;;;;;;;;;;;21.99;42.83;101168.31;5032581;28;20350;-90
2023/05/22 10:10:15;;;;;;;;;;;;;;;22.87;41.21;101165.22;5031587;28;19987;-91
2023/05/22 10:12:42;;;;;;;;;;;;;;;22.34;41.17;101176.53;5013382;28;20360;-93
2023/05/22 10:15:09;;;;;;;;;;;;;;;22.40;41.59;101173.28;4996540;28;19921;-92
2023/05/22 10:17:35;;;;;;;;;;;;;;;22.40;40.27;101181.19;5014137;28;19933;-93
2023/05/22 10:20:00;;;;;;;;;;;;;;;22.55;39.63;101179.69;5013056;28;19921;-92
2023/05/22 10:22:27;;;;;;;;;;;;;;;22.99;38.84;101181.63;5014798;28;20333;-92
2023/05/22 10:24:53;;;;;;;;;;;;;;;23.04;39.36;101185.50;5032913;28;19943;-92
2023/05/22 10:27:18;;;;;;;;;;;;;;;23.22;39.79;101188.09;5015466;28;20003;-91
2023/05/22 10:29:50;;;;;;;;;;;;;;;23.11;39.34;101185.69;5033166;28;20302;-93
2023/05/22 10:32:24;;;;;;;;;;;;;;;22.65;38.91;101184.91;5033625;28;20350;-93
2023/05/22 10:34:57;;;;;;;;;;;;;;;23.01;40.08;101171.78;5033448;28;19970;-92
2023/05/22 10:37:29;;;;;;;;;;;;;;;23.44;37.93;101173.63;5003416;28;19965;-93
2023/05/22 10:40:03;;;;;;;;;;;;;;;23.46;37.84;101176.94;5015113;28;20410;-91
2023/05/22 10:42:29;;;;;;;;;;;;;;;23.50;38.32;101172.97;5020111;28;20014;-92
2023/05/22 10:44:55;;;;;;;;;;;;;;;23.83;37.51;101169.75;5000557;28;20444;-94
2023/05/22 10:47:20;;;;;;;;;;;;;;;23.91;37.22;101172.44;5001958;28;19917;-94
2023/05/22 10:49:45;;;;;;;;;;;;;;;23.31;37.11;101165.28;5026040;28;19928;-93
2023/05/22 10:52:13;;;;;;;;;;;;;;;23.70;37.96;101170.13;5003739;28;19975;-91
2023/05/22 10:54:42;;;;;;;;;;;;;;;24.20;37.16;101171.25;4994985;28;19925;-94
2023/05/22 10:57:09;;;;;;;;;;;;;;;24.67;36.61;101174.19;5027739;28;20012;-93
2023/05/22 10:59:34;;;;;;;;;;;;;;;25.73;35.33;101176.00;4997105;28;19989;-92
2023/05/22 11:01:59;;;;;;;;;;;;;;;25.19;35.37;101168.66;5013731;28;20375;-92
2023/05/22 11:04:25;;;;;;;;;;;;;;;25.99;37.15;101169.66;5010887;28;19921;-92
2023/05/22 11:07:04;;;;;;;;;;;;;;;25.40;35.50;101169.94;5030298;28;20366;-93
2023/05/22 11:09:30;;;;;;;;;;;;;;;26.29;34.79;101168.03;5028487;28;20005;-94
2023/05/22 11:12:10;;;;;;;;;;;;;;;26.52;32.46;101167.25;5018122;28;19968;-93
2023/05/22 11:14:36;;;;;;;;;;;;;;;26.94;32.58;101168.63;5013405;28;19921;-94
2023/05/22 11:17:01;;;;;;;;;;;;;;;27.25;32.13;101156.13;5022752;28;19921;-92
2023/05/22 11:19:26;;;;;;;;;;;;;;;27.32;35.70;101162.34;4998978;28;20422;-91
2023/05/22 11:21:52;;;;;;;;;;;;;;;27.24;29.47;101149.19;5003015;28;19924;-94
2023/05/22 11:24:17;;;;;;;;;;;;;;;27.56;30.72;101152.53;5009890;28;20540;-94
2023/05/22 11:26:43;;;;;;;;;;;;;;;27.73;28.63;101156.63;5011589;28;19921;-94
2023/05/22 11:29:08;;;;;;;;;;;;;;;27.07;26.22;101147.66;5014932;28;20383;-96
2023/05/22 11:31:35;;;;;;;;;;;;;;;26.98;28.21;101149.56;5005836;28;19921;-92
2023/05/22 11:34:01;;;;;;;;;;;;;;;26.59;27.43;101142.56;5028779;28;19952;-93
2023/05/22 11:36:26;;;;;;;;;;;;;;;27.08;29.59;101141.34;5005086;28;19921;-96
2023/05/22 11:38:56;;;;;;;;;;;;;;;27.58;27.57;101147.00;5008577;28;20446;-90
2023/05/22 11:41:21;;;;;;;;;;;;;;;27.64;28.74;101135.69;5025687;28;19921;-92
2023/05/22 11:43:46;;;;;;;;;;;;;;;27.46;28.37;101136.06;5013667;28;19975;-90
2023/05/22 11:46:12;;;;;;;;;;;;;;;26.43;29.07;101135.53;5000528;28;19921;-90
2023/05/22 11:48:41;;;;;;;;;;;;;;;26.23;28.55;101134.31;5014307;28;19926;-89
2023/05/22 11:51:06;;;;;;;;;;;;;;;26.15;29.06;101145.78;5018400;28;19955;-92
2023/05/22 11:53:33;;;;;;;;;;;;;;;26.37;30.29;101141.53;5012115;28;19921;-92
2023/05/22 11:56:04;;;;;;;;;;;;;;;26.59;30.07;101139.09;5008159;28;19925;-92
2023/05/22 11:58:30;;;;;;;;;;;;;;;27.27;29.10;101138.22;5028052;28;19917;-92
2023/05/22 12:00:59;;;;;;;;;;;;;;;27.09;29.87;101137.69;5019275;28;20398;-94
2023/05/22 12:03:24;;;;;;;;;;;;;;;27.01;30.20;101132.47;5006170;28;20286;-93
2023/05/22 12:05:50;;;;;;;;;;;;;;;26.72;30.53;101143.81;5030219;28;19917;-94
2023/05/22 12:08:15;;;;;;;;;;;;;;;27.16;30.65;101148.41;5030882;28;19921;-92
2023/05/22 12:10:45;;;;;;;;;;;;;;;27.33;29.96;101141.97;5032848;28;19913;-94
2023/05/22 12:13:10;;;;;;;;;;;;;;;27.13;29.78;101131.03;5014629;28;19971;-94
2023/05/22 12:15:36;;;;;;;;;;;;;;;26.62;30.08;101136.09;5030653;28;19917;-92
2023/05/22 12:18:01;;;;;;;;;;;;;;;27.13;30.36;101130.22;5031584;28;19921;-90
2023/05/22 12:20:29;;;;;;;;;;;;;;;27.35;29.33;101133.84;5031716;28;20511;-91
2023/05/22 12:22:55;;;;;;;;;;;;;;;26.85;31.53;101133.44;5030728;28;19971;-91
2023/05/22 12:25:23;;;;;;;;;;;;;;;26.65;31.92;101114.56;5029501;28;20352;-93
2023/05/22 12:27:49;;;;;;;;;;;;;;;26.23;31.66;101113.16;5030569;28;20024;-91
2023/05/22 12:30:15;;;;;;;;;;;;;;;27.32;30.65;101109.34;5043566;28;19990;-96
2023/05/22 12:32:45;;;;;;;;;;;;;;;26.53;30.22;101102.69;5015722;28;20395;-96
2023/05/22 12:35:13;;;;;;;;;;;;;;;26.67;31.64;101109.91;5023751;28;19921;-95